Roma — T8A2207 — position and weather

sailwx.info

Track history (hours):
 
Tides and Currents Weather Stations Pressure Air Temp Water Temp Dewpoint Dewpoint Depression Visibility Wind Speed Wind Dir Waves Ship Positions

Roma

Last reported at 2018-May-19 02:31 UTC. Time now 2018-May-23 03:40 UTC.
Position N 27°58' W 014°54'.

; draft 5.5 m.

Type: Cargo ship. MMSI: 511248000.

Date/timePositionNaut miles runAvg speedWind from/ knotsBaromVisibWave heightAir tempDewpointWater temp
2018-May-19 02:31N 27°58' W 014°54'110.2
2018-May-19 02:28N 27°58' W 014°54'510.4
2018-May-19 02:00N 28°01' W 014°59'510.4
2018-May-19 01:31N 28°04' W 015°04'5 9.9
2018-May-19 01:00N 28°05' W 015°09'510.1
2018-May-19 00:31N 28°07' W 015°14'5 9.7
2018-May-18 23:57N 28°08' W 015°20'3 7.6
2018-May-18 23:31N 28°09' W 015°24'0 0.9
2018-May-18 23:00N 28°10' W 015°24'0 0.0
2018-May-18 22:30N 28°10' W 015°24'0 0.0
2018-May-18 21:51N 28°10' W 015°24'0 0.0
2018-May-18 21:30N 28°10' W 015°24'0 0.0
2018-May-18 20:51N 28°10' W 015°24'0 0.0
2018-May-18 20:21N 28°10' W 015°24'0 0.0
2018-May-18 19:51N 28°10' W 015°24'0 0.0
2018-May-18 19:24N 28°10' W 015°24'0 0.0
2018-May-18 18:54N 28°10' W 015°24'0 0.0
2018-May-18 18:24N 28°10' W 015°24'0 0.0
2018-May-18 17:54N 28°10' W 015°24'0 0.0
2018-May-18 17:24N 28°10' W 015°24'0 0.0
2018-May-18 16:54N 28°10' W 015°24'0 0.0
2018-May-18 16:27N 28°10' W 015°24'0 0.0
2018-May-18 15:57N 28°10' W 015°24'0 0.0
2018-May-18 15:27N 28°10' W 015°24'0 0.0
2018-May-18 14:57N 28°10' W 015°24'0 0.0
2018-May-18 14:27N 28°10' W 015°24'0 0.6
2018-May-18 14:00N 28°09' W 015°24'1 1.5
2018-May-18 13:30N 28°09' W 015°24'1 1.6
2018-May-18 13:00N 28°08' W 015°23'4 7.3
2018-May-18 12:30N 28°07' W 015°19'1 1.5
2018-May-18 12:01N 28°07' W 015°19'3 6.7
2018-May-18 11:30N 28°08' W 015°15'5 9.6
2018-May-18 11:00N 28°08' W 015°10'5 9.9
2018-May-18 10:30N 28°08' W 015°04'5 9.7
2018-May-18 09:59N 28°09' W 014°58'4 7.4
2018-May-18 09:30N 28°06' W 014°55'4 8.7
2018-May-18 09:00N 28°02' W 014°57'  
2018-May-13 03:05N 10°01' W 016°18'1 9.8
2018-May-13 03:00N 10°00' W 016°18'32 9.7
2018-May-12 23:43N 09°35' W 015°58'210.0
2018-May-12 23:28N 09°33' W 015°57'5 9.9
2018-May-12 23:00N 09°29' W 015°54'510.0
2018-May-12 22:30N 09°25' W 015°51'5 9.9
2018-May-12 22:00N 09°21' W 015°48'5 9.8
2018-May-12 21:28N 09°16' W 015°45'4 9.8
2018-May-12 21:00N 09°13' W 015°43'510.0
2018-May-12 20:30N 09°09' W 015°40'510.1
2018-May-12 20:00N 09°05' W 015°37'510.2
2018-May-12 19:30N 09°00' W 015°34'510.1
2018-May-12 19:01N 08°56' W 015°31'5 9.9
2018-May-12 18:31N 08°52' W 015°28'5 9.8
2018-May-12 18:01N 08°48' W 015°25'5 9.5
2018-May-12 17:30N 08°45' W 015°22'7 9.5
2018-May-12 16:44N 08°39' W 015°18'2 9.6
2018-May-12 16:30N 08°37' W 015°17'  
Track history (hours):
 
Tides and Currents Weather Stations Pressure Air Temp Water Temp Dewpoint Dewpoint Depression Visibility Wind Speed Wind Dir Waves Ship Positions

Roma

Last reported at 2018-May-19 02:31 UTC. Time now 2018-May-23 03:40 UTC.
Position N 27°58' W 014°54'.

; draft 5.5 m.

Type: Cargo ship. MMSI: 511248000.

Date/timePositionNaut miles runAvg speedWind from/ knotsBaromVisibWave heightAir tempDewpointWater temp
2018-May-19 02:31N 27°58' W 014°54'110.2
2018-May-19 02:28N 27°58' W 014°54'510.4
2018-May-19 02:00N 28°01' W 014°59'510.4
2018-May-19 01:31N 28°04' W 015°04'5 9.9
2018-May-19 01:00N 28°05' W 015°09'510.1
2018-May-19 00:31N 28°07' W 015°14'5 9.7
2018-May-18 23:57N 28°08' W 015°20'3 7.6
2018-May-18 23:31N 28°09' W 015°24'0 0.9
2018-May-18 23:00N 28°10' W 015°24'0 0.0
2018-May-18 22:30N 28°10' W 015°24'0 0.0
2018-May-18 21:51N 28°10' W 015°24'0 0.0
2018-May-18 21:30N 28°10' W 015°24'0 0.0
2018-May-18 20:51N 28°10' W 015°24'0 0.0
2018-May-18 20:21N 28°10' W 015°24'0 0.0
2018-May-18 19:51N 28°10' W 015°24'0 0.0
2018-May-18 19:24N 28°10' W 015°24'0 0.0
2018-May-18 18:54N 28°10' W 015°24'0 0.0
2018-May-18 18:24N 28°10' W 015°24'0 0.0
2018-May-18 17:54N 28°10' W 015°24'0 0.0
2018-May-18 17:24N 28°10' W 015°24'0 0.0
2018-May-18 16:54N 28°10' W 015°24'0 0.0
2018-May-18 16:27N 28°10' W 015°24'0 0.0
2018-May-18 15:57N 28°10' W 015°24'0 0.0
2018-May-18 15:27N 28°10' W 015°24'0 0.0
2018-May-18 14:57N 28°10' W 015°24'0 0.0
2018-May-18 14:27N 28°10' W 015°24'0 0.6
2018-May-18 14:00N 28°09' W 015°24'1 1.5
2018-May-18 13:30N 28°09' W 015°24'1 1.6
2018-May-18 13:00N 28°08' W 015°23'4 7.3
2018-May-18 12:30N 28°07' W 015°19'1 1.5
2018-May-18 12:01N 28°07' W 015°19'3 6.7
2018-May-18 11:30N 28°08' W 015°15'5 9.6
2018-May-18 11:00N 28°08' W 015°10'5 9.9
2018-May-18 10:30N 28°08' W 015°04'5 9.7
2018-May-18 09:59N 28°09' W 014°58'4 7.4
2018-May-18 09:30N 28°06' W 014°55'4 8.7
2018-May-18 09:00N 28°02' W 014°57'  
2018-May-13 03:05N 10°01' W 016°18'1 9.8
2018-May-13 03:00N 10°00' W 016°18'32 9.7
2018-May-12 23:43N 09°35' W 015°58'210.0
2018-May-12 23:28N 09°33' W 015°57'5 9.9
2018-May-12 23:00N 09°29' W 015°54'510.0
2018-May-12 22:30N 09°25' W 015°51'5 9.9
2018-May-12 22:00N 09°21' W 015°48'5 9.8
2018-May-12 21:28N 09°16' W 015°45'4 9.8
2018-May-12 21:00N 09°13' W 015°43'510.0
2018-May-12 20:30N 09°09' W 015°40'510.1
2018-May-12 20:00N 09°05' W 015°37'510.2
2018-May-12 19:30N 09°00' W 015°34'510.1
2018-May-12 19:01N 08°56' W 015°31'5 9.9
2018-May-12 18:31N 08°52' W 015°28'5 9.8
2018-May-12 18:01N 08°48' W 015°25'5 9.5
2018-May-12 17:30N 08°45' W 015°22'7 9.5
2018-May-12 16:44N 08°39' W 015°18'2 9.6
2018-May-12 16:30N 08°37' W 015°17'  

Dump ship's entire track history